Time;durP1;ratioP1;P1;durP2;ratioP2;P2;SDS_P1;SDS_P2;PMS_P1;PMS_P2;Temp;Humidity;BMP_temperature;BMP_pressure;BME280_temperature;BME280_humidity;BME280_pressure;Samples;Min_cycle;Max_cycle;Signal;HPM_P1;HPM_P2
2023/05/15 00:00:00;;;;;;;0.80;0.80;;;22.50;48.30;;;;;;5073001;28;20056;-57
2023/05/15 00:02:27;;;;;;;1.20;1.05;;;22.50;48.80;;;;;;5072831;28;20135;-57
2023/05/15 00:04:54;;;;;;;1.10;1.10;;;22.50;48.30;;;;;;5073326;28;20045;-57
2023/05/15 00:07:22;;;;;;;1.27;1.27;;;22.50;48.30;;;;;;5053140;28;20045;-57
2023/05/15 00:09:49;;;;;;;1.15;1.15;;;22.50;48.30;;;;;;5052640;28;20083;-57
2023/05/15 00:12:16;;;;;;;1.00;1.00;;;22.50;48.30;;;;;;5052407;28;20045;-57
2023/05/15 00:14:43;;;;;;;0.90;0.90;;;22.50;48.30;;;;;;5052758;28;20051;-55
2023/05/15 00:17:11;;;;;;;1.10;1.10;;;22.50;48.30;;;;;;5053121;28;20045;-57
2023/05/15 00:19:38;;;;;;;0.95;0.95;;;22.50;48.30;;;;;;5051617;28;20049;-57
2023/05/15 00:22:05;;;;;;;0.85;0.85;;;22.50;48.30;;;;;;5052610;28;20478;-59
2023/05/15 00:24:33;;;;;;;1.20;1.10;;;22.50;48.30;;;;;;5051754;28;20145;-57
2023/05/15 00:27:01;;;;;;;1.13;1.08;;;22.50;48.30;;;;;;5052528;28;20585;-56
2023/05/15 00:29:28;;;;;;;1.05;1.05;;;22.50;48.30;;;;;;5052779;28;20055;-56
2023/05/15 00:31:55;;;;;;;1.50;0.98;;;22.50;48.30;;;;;;5052815;28;20059;-57
2023/05/15 00:34:23;;;;;;;0.90;0.90;;;22.50;48.30;;;;;;5051488;28;20041;-57
2023/05/15 00:36:50;;;;;;;0.90;0.90;;;22.50;48.30;;;;;;5052632;28;20080;-57
2023/05/15 00:39:17;;;;;;;0.95;0.95;;;22.50;48.30;;;;;;5052802;28;20116;-56
2023/05/15 00:41:46;;;;;;;1.02;0.93;;;22.50;48.30;;;;;;5052396;28;20478;-56
2023/05/15 00:44:15;;;;;;;0.70;0.70;;;22.50;48.30;;;;;;5052581;28;20140;-57
2023/05/15 00:46:45;;;;;;;1.10;1.10;;;22.50;48.30;;;;;;5053086;28;20386;-57
2023/05/15 00:49:14;;;;;;;0.70;0.70;;;22.50;48.20;;;;;;5056122;28;20053;-57
2023/05/15 00:51:42;;;;;;;1.20;1.10;;;22.50;48.20;;;;;;5056384;28;20044;-57
2023/05/15 00:54:10;;;;;;;1.67;1.40;;;22.50;48.20;;;;;;5055650;28;20497;-57
2023/05/15 00:56:38;;;;;;;0.95;0.95;;;22.60;48.30;;;;;;5056038;28;20088;-57
2023/05/15 00:59:06;;;;;;;0.93;0.93;;;22.60;48.30;;;;;;5055838;28;20420;-56
2023/05/15 01:01:34;;;;;;;1.05;1.05;;;22.50;48.20;;;;;;5055725;28;20560;-57
2023/05/15 01:04:01;;;;;;;1.13;1.00;;;22.50;48.20;;;;;;5056285;28;20068;-57
2023/05/15 01:06:30;;;;;;;1.00;1.00;;;22.50;48.20;;;;;;5055745;28;20515;-56
2023/05/15 01:09:03;;;;;;;1.08;1.08;;;22.50;48.20;;;;;;5055805;28;20505;-57
2023/05/15 01:11:35;;;;;;;1.25;1.13;;;22.50;48.20;;;;;;5054576;28;20053;-57
2023/05/15 01:14:07;;;;;;;1.20;1.20;;;22.50;48.20;;;;;;5055629;28;20044;-57
2023/05/15 01:16:35;;;;;;;1.30;1.17;;;22.50;48.20;;;;;;5055900;28;20052;-57
2023/05/15 01:19:03;;;;;;;1.30;1.20;;;22.50;48.20;;;;;;5055702;28;20123;-55
2023/05/15 01:22:11;;;;;;;0.90;0.90;;;22.50;48.20;;;;;;5054197;28;20057;-57
2023/05/15 01:25:09;;;;;;;0.93;0.93;;;22.60;48.30;;;;;;5054080;28;20128;-57
2023/05/15 01:27:42;;;;;;;1.13;1.02;;;22.50;48.20;;;;;;5055320;28;20049;-57
2023/05/15 01:30:28;;;;;;;0.85;0.85;;;22.50;48.30;;;;;;5055318;28;20121;-56
2023/05/15 01:33:25;;;;;;;1.48;1.38;;;22.50;48.30;;;;;;5055060;28;20132;-56
2023/05/15 01:36:11;;;;;;;1.00;1.00;;;22.50;48.30;;;;;;5054986;28;20053;-57
2023/05/15 01:38:48;;;;;;;1.00;1.00;;;22.50;48.30;;;;;;5055057;28;20080;-57
2023/05/15 01:41:31;;;;;;;0.98;0.98;;;22.50;48.30;;;;;;5055121;28;20538;-56
2023/05/15 01:44:07;;;;;;;0.70;0.70;;;22.50;48.30;;;;;;5055194;28;20098;-57
2023/05/15 01:46:41;;;;;;;0.80;0.80;;;22.50;48.30;;;;;;5053690;28;20041;-57
2023/05/15 01:49:12;;;;;;;0.70;0.70;;;22.50;48.30;;;;;;5055356;28;20068;-56
2023/05/15 01:51:41;;;;;;;0.82;0.80;;;22.50;48.30;;;;;;5055153;28;20579;-57
2023/05/15 01:54:09;;;;;;;1.00;1.00;;;22.50;48.50;;;;;;5054341;28;20045;-56
2023/05/15 01:56:37;;;;;;;0.63;0.63;;;22.50;48.40;;;;;;5054839;28;20045;-57
2023/05/15 01:59:06;;;;;;;1.27;1.17;;;22.50;48.50;;;;;;5053875;28;20047;-56
2023/05/15 02:01:35;;;;;;;0.70;0.70;;;22.50;48.40;;;;;;5054748;28;20137;-56
2023/05/15 02:04:03;;;;;;;0.60;0.60;;;22.50;48.40;;;;;;5053962;28;20128;-57
2023/05/15 02:06:32;;;;;;;0.75;0.75;;;22.50;48.40;;;;;;5054890;28;20223;-57
2023/05/15 02:09:02;;;;;;;1.25;1.20;;;22.50;48.40;;;;;;5054658;28;20049;-57
2023/05/15 02:11:29;;;;;;;0.70;0.70;;;22.50;48.50;;;;;;5054450;28;20132;-57
2023/05/15 02:13:57;;;;;;;0.73;0.73;;;22.50;48.40;;;;;;5054391;28;20045;-56
2023/05/15 02:16:25;;;;;;;0.90;0.90;;;22.50;48.40;;;;;;5036894;28;20084;-56
2023/05/15 02:18:52;;;;;;;0.90;0.90;;;22.50;48.40;;;;;;5054852;28;20045;-57
2023/05/15 02:21:19;;;;;;;0.95;0.95;;;22.50;48.30;;;;;;5054287;28;20095;-56
2023/05/15 02:23:46;;;;;;;1.00;1.00;;;22.50;48.30;;;;;;5054243;28;20056;-57
2023/05/15 02:26:53;;;;;;;0.90;0.90;;;22.50;48.30;;;;;;5053591;28;20041;-56
2023/05/15 02:29:51;;;;;;;0.88;0.88;;;22.50;48.30;;;;;;5053433;28;20135;-56
2023/05/15 02:32:33;;;;;;;0.90;0.90;;;22.50;48.30;;;;;;5053444;28;20049;-57
2023/05/15 02:35:10;;;;;;;1.20;1.15;;;22.50;48.30;;;;;;5053856;28;20450;-57
2023/05/15 02:37:41;;;;;;;0.70;0.70;;;22.40;48.30;;;;;;5052948;28;20401;-57
2023/05/15 02:40:10;;;;;;;0.90;0.90;;;22.50;48.30;;;;;;5054081;28;20132;-57
2023/05/15 02:42:40;;;;;;;0.63;0.63;;;22.50;48.30;;;;;;5053985;28;20092;-57
2023/05/15 02:45:09;;;;;;;0.73;0.73;;;22.50;48.30;;;;;;5054041;28;20045;-57
2023/05/15 02:47:37;;;;;;;0.70;0.70;;;22.50;48.30;;;;;;5053849;28;20048;-56
2023/05/15 02:50:05;;;;;;;0.90;0.90;;;22.50;48.30;;;;;;5053652;28;20489;-56
2023/05/15 02:52:36;;;;;;;1.10;1.00;;;22.50;48.30;;;;;;5054203;28;20120;-56
2023/05/15 02:55:05;;;;;;;1.13;0.77;;;22.50;48.30;;;;;;5053787;28;20049;-57
2023/05/15 02:57:32;;;;;;;0.70;0.70;;;22.50;48.30;;;;;;5053694;28;20556;-56
2023/05/15 03:00:00;;;;;;;1.00;0.77;;;22.50;48.30;;;;;;5053979;28;20127;-56
2023/05/15 03:02:27;;;;;;;0.70;0.70;;;22.50;48.30;;;;;;5053086;28;20052;-57
2023/05/15 03:04:55;;;;;;;0.95;0.95;;;22.50;48.30;;;;;;5053973;28;20408;-56
2023/05/15 03:07:22;;;;;;;0.82;0.82;;;22.50;48.30;;;;;;5052902;28;20071;-57
2023/05/15 03:09:49;;;;;;;1.30;1.20;;;22.50;48.30;;;;;;5053121;28;20128;-56
2023/05/15 03:12:16;;;;;;;0.75;0.75;;;22.50;48.30;;;;;;5053533;28;20059;-56
2023/05/15 03:14:43;;;;;;;0.77;0.77;;;22.50;48.30;;;;;;5053210;28;20075;-57
2023/05/15 03:17:10;;;;;;;0.63;0.63;;;22.50;48.30;;;;;;5053394;28;20045;-57
2023/05/15 03:19:37;;;;;;;0.68;0.68;;;22.50;48.30;;;;;;5052768;28;20045;-57
2023/05/15 03:22:04;;;;;;;0.60;0.60;;;22.50;48.30;;;;;;5053550;28;20052;-56
2023/05/15 03:24:32;;;;;;;0.90;0.90;;;22.50;48.30;;;;;;5053054;28;20413;-57
2023/05/15 03:26:59;;;;;;;1.00;0.90;;;22.50;48.30;;;;;;5053488;28;20049;-56
2023/05/15 03:29:26;;;;;;;0.95;0.95;;;22.50;48.30;;;;;;5052145;28;20049;-56
2023/05/15 03:31:53;;;;;;;0.60;0.60;;;22.50;48.30;;;;;;5053524;28;20045;-57
2023/05/15 03:34:20;;;;;;;0.98;0.98;;;22.50;48.30;;;;;;5065076;28;20397;-57
2023/05/15 03:36:48;;;;;;;0.70;0.70;;;22.50;48.30;;;;;;5073234;28;20412;-56
2023/05/15 03:39:15;;;;;;;0.82;0.82;;;22.50;48.30;;;;;;5073048;28;20228;-56
2023/05/15 03:41:42;;;;;;;1.45;0.85;;;22.50;48.30;;;;;;5072929;28;20044;-56
2023/05/15 03:44:09;;;;;;;0.70;0.70;;;22.50;48.30;;;;;;5070359;28;20048;-57
2023/05/15 03:46:36;;;;;;;0.80;0.80;;;22.50;48.30;;;;;;5080026;28;20036;-57
2023/05/15 03:49:03;;;;;;;0.80;0.80;;;22.40;48.30;;;;;;5072618;28;20113;-57
2023/05/15 03:51:30;;;;;;;0.70;0.70;;;22.40;48.30;;;;;;5071344;28;20131;-56
2023/05/15 03:53:57;;;;;;;0.85;0.85;;;22.50;48.30;;;;;;5072240;28;20054;-57
2023/05/15 03:56:25;;;;;;;0.90;0.90;;;22.50;48.30;;;;;;5068532;28;20082;-56
2023/05/15 03:58:52;;;;;;;0.60;0.60;;;22.50;48.40;;;;;;5072315;28;20488;-56
2023/05/15 04:01:19;;;;;;;0.80;0.80;;;22.50;48.30;;;;;;5072680;28;20087;-56
2023/05/15 04:03:46;;;;;;;0.50;0.50;;;22.50;48.40;;;;;;5071399;28;20546;-57
2023/05/15 04:06:14;;;;;;;1.02;1.00;;;22.50;48.30;;;;;;5072789;28;20055;-56
2023/05/15 04:08:41;;;;;;;0.60;0.60;;;22.50;48.30;;;;;;5072704;28;20052;-57
2023/05/15 04:11:10;;;;;;;0.70;0.70;;;22.50;48.30;;;;;;5072875;28;20052;-57
2023/05/15 04:13:38;;;;;;;0.68;0.68;;;22.50;48.30;;;;;;5072102;28;20135;-56
2023/05/15 04:16:06;;;;;;;0.60;0.60;;;22.50;48.30;;;;;;5067856;28;20077;-56
2023/05/15 04:18:33;;;;;;;0.52;0.52;;;22.50;48.30;;;;;;5071896;28;20048;-57
2023/05/15 04:21:00;;;;;;;0.63;0.63;;;22.50;48.30;;;;;;5072783;28;20095;-56
2023/05/15 04:23:27;;;;;;;0.73;0.73;;;22.50;48.30;;;;;;5075068;28;20143;-57
2023/05/15 04:25:55;;;;;;;0.80;0.80;;;22.50;48.30;;;;;;5076570;28;20048;-56
2023/05/15 04:28:22;;;;;;;0.70;0.70;;;22.50;48.30;;;;;;5078811;28;20041;-56
2023/05/15 04:30:50;;;;;;;0.77;0.77;;;22.60;48.30;;;;;;5075623;28;20044;-57
2023/05/15 04:33:17;;;;;;;0.70;0.70;;;22.50;48.20;;;;;;5073486;28;20455;-56
2023/05/15 04:35:44;;;;;;;0.65;0.65;;;22.50;48.20;;;;;;5074297;28;20040;-57
2023/05/15 04:38:11;;;;;;;0.80;0.75;;;22.60;48.20;;;;;;5078017;28;20153;-57
2023/05/15 04:40:38;;;;;;;0.70;0.70;;;22.60;48.10;;;;;;5075965;28;20083;-56
2023/05/15 04:43:06;;;;;;;0.75;0.60;;;22.60;48.10;;;;;;5068167;28;20135;-56
2023/05/15 04:45:33;;;;;;;1.05;0.77;;;22.60;48.10;;;;;;5074658;28;20051;-57
2023/05/15 04:48:00;;;;;;;0.45;0.45;;;22.60;48.10;;;;;;5073762;28;20079;-56
2023/05/15 04:50:27;;;;;;;0.85;0.85;;;22.60;48.10;;;;;;5075756;28;20057;-56
2023/05/15 04:52:54;;;;;;;0.70;0.70;;;22.60;48.00;;;;;;5078727;28;20044;-56
2023/05/15 04:55:22;;;;;;;0.75;0.75;;;22.60;48.00;;;;;;5073718;28;20048;-56
2023/05/15 04:57:50;;;;;;;0.88;0.88;;;22.60;48.00;;;;;;5072992;28;20056;-57
2023/05/15 05:00:17;;;;;;;0.75;0.75;;;22.70;48.00;;;;;;5070547;28;20045;-56
2023/05/15 05:02:44;;;;;;;0.80;0.80;;;22.70;48.00;;;;;;5071211;28;20123;-57
2023/05/15 05:05:13;;;;;;;0.70;0.70;;;22.70;48.00;;;;;;5073944;28;20068;-56
2023/05/15 05:07:45;;;;;;;0.70;0.70;;;22.70;47.90;;;;;;5073275;28;20040;-56
2023/05/15 05:10:12;;;;;;;0.70;0.70;;;22.70;47.90;;;;;;5070926;28;20045;-56
2023/05/15 05:12:39;;;;;;;0.80;0.80;;;22.70;47.90;;;;;;5070914;28;20052;-56
2023/05/15 05:15:07;;;;;;;0.80;0.80;;;22.70;47.80;;;;;;5069766;28;20046;-56
2023/05/15 05:17:34;;;;;;;0.70;0.70;;;22.80;47.80;;;;;;5074186;28;20055;-57
2023/05/15 05:20:01;;;;;;;0.70;0.70;;;22.80;47.80;;;;;;5074614;28;20044;-56
2023/05/15 05:22:29;;;;;;;0.68;0.68;;;22.80;47.70;;;;;;5067001;28;20143;-56
2023/05/15 05:24:57;;;;;;;0.98;0.98;;;22.80;47.70;;;;;;5061777;28;20048;-57
2023/05/15 05:27:24;;;;;;;0.68;0.68;;;22.80;47.60;;;;;;5063890;28;20094;-57
2023/05/15 05:29:53;;;;;;;0.60;0.60;;;22.90;47.70;;;;;;5069107;28;20037;-56
2023/05/15 05:32:20;;;;;;;0.70;0.70;;;22.90;47.60;;;;;;5065847;28;20131;-57
2023/05/15 05:34:47;;;;;;;0.77;0.77;;;22.90;47.60;;;;;;5067146;28;20055;-55
2023/05/15 05:37:14;;;;;;;0.95;0.85;;;22.90;47.60;;;;;;5062539;28;20052;-56
2023/05/15 05:39:41;;;;;;;0.63;0.63;;;22.90;47.60;;;;;;5067240;28;20092;-56
2023/05/15 05:42:08;;;;;;;0.70;0.70;;;22.90;47.60;;;;;;5065397;28;20118;-57
2023/05/15 05:44:36;;;;;;;0.65;0.65;;;22.90;47.50;;;;;;5067452;28;20488;-57
2023/05/15 05:47:03;;;;;;;0.60;0.60;;;22.90;47.50;;;;;;5062612;28;20051;-57
2023/05/15 05:49:30;;;;;;;0.65;0.65;;;22.90;47.50;;;;;;5064677;28;20132;-56
2023/05/15 05:52:05;;;;;;;0.70;0.60;;;22.90;47.60;;;;;;5063453;28;20556;-56
2023/05/15 05:54:32;;;;;;;0.70;0.70;;;22.90;47.60;;;;;;5066224;28;20477;-57
2023/05/15 05:56:59;;;;;;;0.88;0.85;;;23.00;47.60;;;;;;5062770;28;20103;-57
2023/05/15 05:59:28;;;;;;;0.60;0.60;;;23.00;47.60;;;;;;5062339;28;20056;-57
2023/05/15 06:01:55;;;;;;;0.80;0.80;;;23.10;47.70;;;;;;5058775;28;20063;-58
2023/05/15 06:04:22;;;;;;;0.93;0.80;;;23.10;47.70;;;;;;5061399;28;20093;-58
2023/05/15 06:06:53;;;;;;;0.60;0.60;;;23.10;47.60;;;;;;5061929;28;20053;-57
2023/05/15 06:09:20;;;;;;;2.95;0.60;;;23.20;47.60;;;;;;5060703;28;20132;-57
2023/05/15 06:11:47;;;;;;;0.60;0.60;;;23.20;47.60;;;;;;5062219;28;20059;-56
2023/05/15 06:14:14;;;;;;;0.85;0.85;;;23.20;47.60;;;;;;5060638;28;20542;-56
2023/05/15 06:16:42;;;;;;;0.85;0.85;;;23.30;47.70;;;;;;5062519;28;20481;-57
2023/05/15 06:19:10;;;;;;;2.40;1.00;;;23.30;47.70;;;;;;5065343;28;20048;-56
2023/05/15 06:21:37;;;;;;;0.90;0.90;;;23.30;47.60;;;;;;5064139;28;20451;-56
2023/05/15 06:24:04;;;;;;;7.22;0.98;;;23.40;47.70;;;;;;5064391;28;21904;-57
2023/05/15 06:26:32;;;;;;;0.65;0.65;;;23.40;48.20;;;;;;5063153;28;20052;-54
2023/05/15 06:28:59;;;;;;;3.67;0.95;;;23.40;47.60;;;;;;5064426;28;20055;-55
2023/05/15 06:31:26;;;;;;;0.70;0.70;;;23.40;47.50;;;;;;5062053;28;20044;-55
2023/05/15 06:33:53;;;;;;;1.27;0.70;;;23.40;47.40;;;;;;5062634;28;20400;-56
2023/05/15 06:36:21;;;;;;;0.60;0.60;;;23.40;47.40;;;;;;5061001;28;20076;-56
2023/05/15 06:38:48;;;;;;;1.00;1.00;;;23.40;47.40;;;;;;5062725;28;20052;-56
2023/05/15 06:41:15;;;;;;;1.85;0.70;;;23.50;47.40;;;;;;5062960;28;20080;-55
2023/05/15 06:43:44;;;;;;;0.57;0.57;;;23.50;47.30;;;;;;5062709;28;20143;-56
2023/05/15 06:46:11;;;;;;;0.75;0.75;;;23.50;47.80;;;;;;5060637;28;20052;-56
2023/05/15 06:48:38;;;;;;;0.75;0.75;;;23.50;47.20;;;;;;5059415;28;20575;-57
2023/05/15 06:51:05;;;;;;;0.70;0.70;;;23.50;47.20;;;;;;5061851;28;20463;-55
2023/05/15 06:53:35;;;;;;;0.93;0.80;;;23.50;47.10;;;;;;5061378;28;20056;-57
2023/05/15 06:56:03;;;;;;;0.70;0.70;;;23.60;47.00;;;;;;5058866;28;20064;-57
2023/05/15 06:58:30;;;;;;;0.70;0.70;;;23.60;46.80;;;;;;5058216;28;20041;-56
2023/05/15 07:00:58;;;;;;;0.70;0.70;;;23.70;46.70;;;;;;5060935;28;20040;-56
2023/05/15 07:03:26;;;;;;;3.08;0.65;;;23.70;46.70;;;;;;5062474;28;20048;-57
2023/05/15 07:05:53;;;;;;;1.20;0.90;;;23.70;46.50;;;;;;5065929;28;20059;-57
2023/05/15 07:08:22;;;;;;;1.50;0.60;;;23.70;46.50;;;;;;5064978;28;20036;-56
2023/05/15 07:10:50;;;;;;;0.93;0.77;;;23.80;46.40;;;;;;5060593;28;20080;-59
2023/05/15 07:13:18;;;;;;;0.52;0.52;;;23.80;46.30;;;;;;5061572;28;20144;-53
2023/05/15 07:15:46;;;;;;;1.63;0.90;;;23.80;46.20;;;;;;5061817;28;20060;-55
2023/05/15 07:18:13;;;;;;;0.63;0.63;;;23.90;46.20;;;;;;5065243;28;20048;-56
2023/05/15 07:20:41;;;;;;;0.63;0.63;;;23.90;46.10;;;;;;5060605;28;20048;-57
2023/05/15 07:23:08;;;;;;;0.80;0.70;;;23.90;46.20;;;;;;5064187;28;20106;-57
2023/05/15 07:25:36;;;;;;;3.35;0.70;;;24.00;46.20;;;;;;5060605;28;20048;-57
2023/05/15 07:28:03;;;;;;;1.77;0.70;;;24.00;46.20;;;;;;5061911;28;20055;-56
2023/05/15 07:30:30;;;;;;;0.98;0.85;;;24.00;46.20;;;;;;5059036;28;20140;-56
2023/05/15 07:32:58;;;;;;;0.90;0.90;;;24.10;46.30;;;;;;5060772;28;20063;-57
2023/05/15 07:35:25;;;;;;;0.65;0.65;;;24.10;46.20;;;;;;5064219;28;20079;-54
2023/05/15 07:37:53;;;;;;;0.95;0.95;;;24.20;46.20;;;;;;5064275;28;20060;-55
2023/05/15 07:40:20;;;;;;;3.17;0.70;;;24.30;46.10;;;;;;5064334;28;20098;-57
2023/05/15 07:42:47;;;;;;;0.95;0.90;;;24.30;46.10;;;;;;5063311;28;20044;-57
2023/05/15 07:45:15;;;;;;;1.45;0.75;;;24.30;46.00;;;;;;5062074;28;20098;-57
2023/05/15 07:47:47;;;;;;;1.15;0.75;;;24.40;46.00;;;;;;5060048;28;20147;-58
2023/05/15 07:50:15;;;;;;;0.73;0.73;;;24.50;45.80;;;;;;5066279;28;20048;-56
2023/05/15 07:52:43;;;;;;;0.75;0.75;;;24.50;45.70;;;;;;5061303;28;20077;-54
2023/05/15 07:55:10;;;;;;;0.68;0.60;;;24.60;45.70;;;;;;5059163;28;20066;-57
2023/05/15 07:57:38;;;;;;;0.70;0.70;;;24.60;45.60;;;;;;5058787;28;20101;-57
2023/05/15 08:00:11;;;;;;;3.40;1.17;;;24.70;45.60;;;;;;5064970;28;21045;-57
2023/05/15 08:02:39;;;;;;;2.40;0.90;;;24.70;45.50;;;;;;5066113;28;20102;-53
2023/05/15 08:05:07;;;;;;;0.80;0.77;;;24.70;45.40;;;;;;5067383;28;20509;-57
2023/05/15 08:07:34;;;;;;;1.23;1.13;;;24.80;45.40;;;;;;5072354;28;20508;-57
2023/05/15 08:10:04;;;;;;;1.00;1.00;;;24.80;45.50;;;;;;5065811;28;20131;-55
2023/05/15 08:12:32;;;;;;;5.05;0.93;;;24.80;45.40;;;;;;5067624;28;20064;-56
2023/05/15 08:14:59;;;;;;;3.55;1.48;;;24.90;45.60;;;;;;5068101;28;20037;-51
2023/05/15 08:17:28;;;;;;;2.55;1.33;;;24.90;45.50;;;;;;5070253;28;20079;-56
2023/05/15 08:19:55;;;;;;;2.75;0.93;;;24.90;45.50;;;;;;5065387;28;20479;-57
2023/05/15 08:22:22;;;;;;;1.05;0.95;;;24.90;45.60;;;;;;5068541;28;20044;-57
2023/05/15 08:24:49;;;;;;;0.95;0.90;;;24.90;45.50;;;;;;5068086;28;20144;-57
2023/05/15 08:27:16;;;;;;;2.28;0.82;;;24.90;45.50;;;;;;5062753;28;20127;-57
2023/05/15 08:29:44;;;;;;;1.10;0.68;;;25.00;45.50;;;;;;5069709;28;20416;-55
2023/05/15 08:32:12;;;;;;;1.25;1.13;;;25.00;45.50;;;;;;5068028;28;20139;-58
2023/05/15 08:34:39;;;;;;;2.20;0.95;;;25.00;45.50;;;;;;5067327;28;20106;-59
2023/05/15 08:37:06;;;;;;;1.33;1.17;;;25.00;45.40;;;;;;5068955;28;20052;-56
2023/05/15 08:39:33;;;;;;;3.28;1.25;;;25.10;45.40;;;;;;5069362;28;20143;-57
2023/05/15 08:42:20;;;;;;;1.90;1.10;;;25.00;45.20;;;;;;5068886;28;20127;-56
2023/05/15 08:44:48;;;;;;;0.93;0.85;;;25.10;45.30;;;;;;5068259;28;20161;-58
2023/05/15 08:47:17;;;;;;;0.93;0.90;;;25.00;45.30;;;;;;5066038;28;20072;-57
2023/05/15 08:50:04;;;;;;;1.92;1.20;;;25.00;45.30;;;;;;5067684;28;20058;-59
2023/05/15 08:52:32;;;;;;;2.55;1.33;;;24.90;45.40;;;;;;5064713;28;20087;-57
2023/05/15 08:55:02;;;;;;;3.08;1.38;;;24.90;45.50;;;;;;5065552;28;20044;-57
2023/05/15 08:57:30;;;;;;;2.47;1.00;;;24.90;45.50;;;;;;5067804;28;20550;-57
2023/05/15 08:59:59;;;;;;;1.20;1.13;;;24.90;45.60;;;;;;5064237;28;20135;-57
2023/05/15 09:02:26;;;;;;;5.32;1.33;;;24.90;45.60;;;;;;5066087;28;20152;-57
2023/05/15 09:04:53;;;;;;;1.27;1.13;;;24.90;45.60;;;;;;5068692;28;20040;-57
2023/05/15 09:07:21;;;;;;;16.85;1.75;;;25.00;45.50;;;;;;5067699;28;20052;-57
2023/05/15 09:09:50;;;;;;;3.00;1.13;;;25.00;45.50;;;;;;5065781;28;20494;-57
2023/05/15 09:12:18;;;;;;;1.55;1.08;;;25.10;45.40;;;;;;5061995;28;20048;-57
2023/05/15 09:14:45;;;;;;;1.10;0.85;;;25.10;45.30;;;;;;5065403;28;20106;-58
2023/05/15 09:17:13;;;;;;;1.23;1.13;;;25.20;45.30;;;;;;5063977;28;20062;-58
2023/05/15 09:19:41;;;;;;;1.25;1.10;;;25.20;45.20;;;;;;5058633;28;20056;-58
2023/05/15 09:22:17;;;;;;;3.15;0.90;;;25.30;45.20;;;;;;5060925;28;20044;-57
2023/05/15 09:24:46;;;;;;;1.30;1.10;;;25.40;45.20;;;;;;5065338;28;20040;-58
2023/05/15 09:27:14;;;;;;;1.60;1.20;;;25.40;45.10;;;;;;5066474;28;20067;-59
2023/05/15 09:29:41;;;;;;;2.80;1.35;;;25.40;45.00;;;;;;5066523;28;20046;-57
2023/05/15 09:32:10;;;;;;;2.60;1.05;;;25.40;44.90;;;;;;5066453;28;20492;-60
2023/05/15 09:34:39;;;;;;;0.95;0.70;;;25.50;44.90;;;;;;5063740;28;20481;-57
2023/05/15 09:37:10;;;;;;;1.60;0.90;;;25.50;44.90;;;;;;5068448;28;20094;-61
2023/05/15 09:39:41;;;;;;;1.05;0.95;;;25.50;44.90;;;;;;5065862;28;20068;-57
2023/05/15 09:42:11;;;;;;;0.90;0.90;;;25.40;44.80;;;;;;5064741;28;20209;-57
2023/05/15 09:44:42;;;;;;;0.80;0.70;;;25.40;44.80;;;;;;5066248;28;20052;-59
2023/05/15 09:47:11;;;;;;;2.05;0.80;;;25.40;44.90;;;;;;5064640;28;20339;-58
2023/05/15 09:49:42;;;;;;;2.22;1.45;;;25.40;45.00;;;;;;5065426;28;20045;-56
2023/05/15 09:52:10;;;;;;;2.15;0.80;;;25.40;45.00;;;;;;5066314;28;20409;-58
2023/05/15 09:54:37;;;;;;;1.17;1.08;;;25.40;45.00;;;;;;5068659;28;20048;-57
2023/05/15 09:57:12;;;;;;;1.23;0.75;;;25.40;45.00;;;;;;5069028;28;20072;-61
2023/05/15 09:59:45;;;;;;;3.33;0.90;;;25.40;45.00;;;;;;5067166;28;20083;-59
2023/05/15 10:02:30;;;;;;;1.40;0.95;;;25.50;45.10;;;;;;5065868;28;20044;-59
2023/05/15 10:04:59;;;;;;;1.00;0.82;;;25.50;44.90;;;;;;5065982;28;20128;-65
2023/05/15 10:07:34;;;;;;;1.23;0.90;;;25.50;44.70;;;;;;5067735;28;20097;-64
2023/05/15 10:10:03;;;;;;;1.52;1.05;;;25.50;44.70;;;;;;5065584;28;20124;-65
2023/05/15 10:12:31;;;;;;;1.33;0.77;;;25.50;44.60;;;;;;5070060;28;20106;-59
2023/05/15 10:14:59;;;;;;;1.20;0.82;;;25.50;44.50;;;;;;5072127;28;20052;-64
2023/05/15 10:17:28;;;;;;;2.58;0.77;;;25.50;44.40;;;;;;5069444;28;20562;-59
2023/05/15 10:19:58;;;;;;;0.80;0.80;;;25.60;44.40;;;;;;5065889;28;20052;-58
2023/05/15 10:22:29;;;;;;;2.78;0.80;;;25.60;44.30;;;;;;5067084;28;20148;-60
2023/05/15 10:25:27;;;;;;;1.52;0.77;;;25.60;44.20;;;;;;5072744;28;20052;-61
2023/05/15 10:27:55;;;;;;;0.75;0.60;;;25.60;44.20;;;;;;5069881;28;20056;-64
2023/05/15 10:30:24;;;;;;;0.70;0.70;;;25.60;44.30;;;;;;5064342;28;20162;-59
2023/05/15 10:32:52;;;;;;;1.13;0.80;;;25.60;44.30;;;;;;5068148;28;20060;-58
2023/05/15 10:35:21;;;;;;;1.25;0.70;;;25.70;44.20;;;;;;5069237;28;20492;-57
2023/05/15 10:37:48;;;;;;;1.88;0.93;;;25.70;44.20;;;;;;5069327;28;20903;-58
2023/05/15 10:40:16;;;;;;;1.65;1.00;;;25.70;44.10;;;;;;5066925;28;20110;-58
2023/05/15 10:42:45;;;;;;;1.60;0.60;;;25.70;44.00;;;;;;5065475;28;20101;-60
2023/05/15 10:45:13;;;;;;;0.50;0.50;;;25.70;44.00;;;;;;5064770;28;20051;-59
2023/05/15 10:47:41;;;;;;;0.57;0.57;;;25.70;43.90;;;;;;5065427;28;20123;-61
2023/05/15 10:50:11;;;;;;;1.23;0.50;;;25.70;43.80;;;;;;5063853;28;20507;-61
2023/05/15 10:52:38;;;;;;;1.13;0.70;;;25.70;43.80;;;;;;5063555;28;20135;-58
2023/05/15 10:55:08;;;;;;;1.50;0.40;;;25.70;43.80;;;;;;5060689;28;20047;-55
2023/05/15 10:57:36;;;;;;;0.40;0.40;;;25.70;43.70;;;;;;5064534;28;20171;-54
2023/05/15 11:00:25;;;;;;;1.00;0.93;;;25.80;43.80;;;;;;5064745;28;20484;-57
2023/05/15 11:02:57;;;;;;;1.83;0.55;;;25.70;43.70;;;;;;5067576;28;20140;-55
2023/05/15 11:05:25;;;;;;;0.60;0.60;;;25.80;43.80;;;;;;5066190;28;20041;-56
2023/05/15 11:08:24;;;;;;;0.50;0.50;;;25.70;43.80;;;;;;5060143;28;20049;-58
2023/05/15 11:10:53;;;;;;;1.33;1.08;;;25.80;43.80;;;;;;5058178;28;20421;-56
2023/05/15 11:13:20;;;;;;;0.60;0.60;;;25.80;43.80;;;;;;5068681;28;20044;-57
2023/05/15 11:15:48;;;;;;;0.85;0.70;;;25.90;43.90;;;;;;5064300;28;20672;-57
2023/05/15 11:18:16;;;;;;;0.63;0.50;;;25.90;43.80;;;;;;5062218;28;21265;-57
2023/05/15 11:21:04;;;;;;;0.63;0.63;;;25.90;43.90;;;;;;5058839;28;20044;-56
2023/05/15 11:23:39;;;;;;;1.10;0.90;;;25.90;43.90;;;;;;5066550;28;20044;-59
2023/05/15 11:26:07;;;;;;;1.20;0.52;;;25.90;43.80;;;;;;5063597;28;20040;-58
2023/05/15 11:28:42;;;;;;;1.15;0.70;;;26.00;44.40;;;;;;5063363;28;20053;-54
2023/05/15 11:31:09;;;;;;;0.73;0.73;;;26.00;43.80;;;;;;5064872;28;20044;-59
2023/05/15 11:33:39;;;;;;;1.35;0.60;;;26.00;43.80;;;;;;5064305;28;20055;-58
2023/05/15 11:36:07;;;;;;;0.75;0.70;;;25.90;43.80;;;;;;5060653;28;20048;-57
2023/05/15 11:38:41;;;;;;;1.95;0.93;;;25.90;43.90;;;;;;5059534;28;20072;-58
2023/05/15 11:41:20;;;;;;;1.75;0.85;;;25.90;44.00;;;;;;5057718;28;20044;-59
2023/05/15 11:43:49;;;;;;;0.95;0.90;;;26.00;43.90;;;;;;5064627;28;20129;-58
2023/05/15 11:46:16;;;;;;;0.73;0.60;;;26.00;43.80;;;;;;5067938;28;20044;-58
2023/05/15 11:48:48;;;;;;;0.47;0.45;;;26.00;43.80;;;;;;5067084;28;20087;-59
2023/05/15 11:51:21;;;;;;;1.35;0.60;;;26.00;43.80;;;;;;5064219;28;20123;-58
2023/05/15 11:53:50;;;;;;;2.60;0.65;;;26.00;43.90;;;;;;5066113;28;20550;-55
2023/05/15 11:56:20;;;;;;;0.40;0.40;;;26.00;44.00;;;;;;5065680;28;20485;-57
2023/05/15 11:58:54;;;;;;;2.53;0.50;;;26.00;43.90;;;;;;5063534;28;20087;-57
2023/05/15 12:01:21;;;;;;;0.57;0.52;;;26.00;43.80;;;;;;5060883;28;20056;-58
2023/05/15 12:03:50;;;;;;;2.33;0.40;;;26.00;43.90;;;;;;5061672;28;20053;-58
2023/05/15 12:06:18;;;;;;;3.35;0.50;;;26.00;43.80;;;;;;5060448;28;20360;-57
2023/05/15 12:08:51;;;;;;;0.32;0.32;;;26.00;43.80;;;;;;5062393;28;20040;-56
2023/05/15 12:11:22;;;;;;;0.73;0.52;;;26.00;43.90;;;;;;5060680;28;20055;-55
2023/05/15 12:13:53;;;;;;;0.47;0.45;;;26.10;44.00;;;;;;5064759;28;20048;-56
2023/05/15 12:16:27;;;;;;;0.75;0.60;;;26.10;44.00;;;;;;5067505;28;20123;-52
2023/05/15 12:18:59;;;;;;;0.73;0.40;;;26.10;44.40;;;;;;5063104;28;20048;-56
2023/05/15 12:21:26;;;;;;;2.92;0.50;;;26.10;43.90;;;;;;5066994;28;20461;-57
2023/05/15 12:23:54;;;;;;;0.75;0.60;;;26.10;43.80;;;;;;5064714;28;20049;-53
2023/05/15 12:26:26;;;;;;;2.55;0.50;;;26.20;43.80;;;;;;5065440;28;20058;-56
2023/05/15 12:28:55;;;;;;;0.68;0.60;;;26.20;43.80;;;;;;5063668;28;20045;-52
2023/05/15 12:31:22;;;;;;;0.63;0.30;;;26.20;43.70;;;;;;5065335;28;20111;-54
2023/05/15 12:33:49;;;;;;;0.40;0.40;;;26.20;43.70;;;;;;5064529;28;20058;-57
2023/05/15 12:36:19;;;;;;;1.45;0.50;;;26.20;43.70;;;;;;5065940;28;20140;-57
2023/05/15 12:38:47;;;;;;;0.60;0.60;;;26.30;43.70;;;;;;5065517;28;20086;-57
2023/05/15 12:41:15;;;;;;;0.85;0.40;;;26.30;43.70;;;;;;5065261;28;20102;-57
2023/05/15 12:43:43;;;;;;;0.60;0.30;;;26.30;43.80;;;;;;5067342;28;20110;-57
2023/05/15 12:46:12;;;;;;;0.65;0.65;;;26.30;43.80;;;;;;5067875;28;20070;-56
2023/05/15 12:48:40;;;;;;;1.33;0.52;;;26.20;43.70;;;;;;5065314;28;20594;-55
2023/05/15 12:51:07;;;;;;;0.52;0.50;;;26.20;43.70;;;;;;5069592;28;20083;-57
2023/05/15 12:53:38;;;;;;;0.70;0.60;;;26.20;43.80;;;;;;5067546;28;20048;-57
2023/05/15 12:56:07;;;;;;;1.27;0.65;;;26.20;43.70;;;;;;5066909;28;20066;-58
2023/05/15 12:58:36;;;;;;;0.77;0.47;;;26.20;43.70;;;;;;5070315;28;20048;-58